Time;durP1;ratioP1;P1;durP2;ratioP2;P2;SDS_P1;SDS_P2;PMS_P1;PMS_P2;Temp;Humidity;BMP_temperature;BMP_pressure;BME280_temperature;BME280_humidity;BME280_pressure;Samples;Min_cycle;Max_cycle;Signal;HPM_P1;HPM_P2
2021/11/13 00:00:21;;;;;;;11.55;10.35;;;7.20;99.90;;;;;;4994590;28;20190;-78
2021/11/13 00:02:48;;;;;;;12.50;10.65;;;7.20;99.90;;;;;;4977292;28;20182;-78
2021/11/13 00:05:14;;;;;;;14.00;10.77;;;7.20;99.90;;;;;;4994301;28;20171;-78
2021/11/13 00:07:40;;;;;;;13.20;9.87;;;7.20;99.90;;;;;;4998834;28;20202;-78
2021/11/13 00:10:06;;;;;;;11.30;9.70;;;7.20;99.90;;;;;;4995932;28;20889;-78
2021/11/13 00:12:32;;;;;;;11.70;10.13;;;7.20;99.90;;;;;;5000366;28;20586;-78
2021/11/13 00:15:00;;;;;;;11.03;9.83;;;7.20;99.90;;;;;;4993127;28;20209;-78
2021/11/13 00:17:27;;;;;;;11.52;10.15;;;7.20;99.90;;;;;;4992106;28;20543;-78
2021/11/13 00:19:52;;;;;;;10.60;8.00;;;7.30;99.90;;;;;;4976754;28;20555;-78
2021/11/13 00:22:18;;;;;;;9.53;7.83;;;7.30;99.90;;;;;;4976953;28;20171;-78
2021/11/13 00:24:44;;;;;;;8.77;7.87;;;7.40;99.90;;;;;;4993045;28;20175;-78
2021/11/13 00:27:10;;;;;;;10.47;8.90;;;7.50;99.90;;;;;;4993563;28;20191;-77
2021/11/13 00:29:35;;;;;;;10.43;9.33;;;7.50;99.90;;;;;;4994660;28;20171;-78
2021/11/13 00:32:02;;;;;;;10.27;8.40;;;7.50;99.90;;;;;;4997100;28;21197;-78
2021/11/13 00:34:28;;;;;;;9.70;8.70;;;7.50;99.90;;;;;;4976839;28;20175;-78
2021/11/13 00:36:54;;;;;;;9.45;7.90;;;7.40;99.90;;;;;;4992354;28;20542;-78
2021/11/13 00:39:21;;;;;;;11.53;9.80;;;7.50;99.90;;;;;;4975908;28;20179;-78
2021/11/13 00:41:48;;;;;;;10.40;8.43;;;7.50;99.90;;;;;;4977080;28;20249;-78
2021/11/13 00:44:15;;;;;;;10.00;9.00;;;7.50;99.90;;;;;;4992456;28;20183;-78
2021/11/13 00:46:41;;;;;;;11.55;9.13;;;7.50;99.90;;;;;;4993516;28;20187;-78
2021/11/13 00:49:08;;;;;;;11.18;9.68;;;7.50;99.90;;;;;;4975887;28;20206;-78
2021/11/13 00:51:34;;;;;;;11.23;9.52;;;7.60;99.90;;;;;;4992731;28;20167;-78
2021/11/13 00:54:01;;;;;;;8.57;6.78;;;7.60;99.90;;;;;;4976002;28;20190;-78
2021/11/13 00:56:28;;;;;;;10.82;9.13;;;7.60;99.90;;;;;;4975928;28;20301;-79
2021/11/13 00:58:54;;;;;;;8.40;7.40;;;7.70;99.90;;;;;;4992362;28;20201;-78
2021/11/13 01:01:20;;;;;;;11.80;7.50;;;7.70;99.90;;;;;;4976256;28;20171;-78
2021/11/13 01:03:46;;;;;;;11.43;9.98;;;7.70;99.90;;;;;;4992403;28;20202;-78
2021/11/13 01:06:18;;;;;;;8.63;6.85;;;7.70;99.90;;;;;;4976595;28;20175;-78
2021/11/13 01:08:47;;;;;;;9.23;8.07;;;7.80;99.90;;;;;;4961541;28;20203;-78
2021/11/13 01:11:14;;;;;;;12.25;9.07;;;7.80;99.90;;;;;;4980014;28;21028;-78
2021/11/13 01:13:40;;;;;;;10.40;8.52;;;7.80;99.90;;;;;;4991958;28;20844;-78
2021/11/13 01:16:06;;;;;;;10.90;8.73;;;7.80;99.90;;;;;;4991092;28;20170;-78
2021/11/13 01:18:32;;;;;;;12.30;9.80;;;7.80;99.90;;;;;;4991929;28;20183;-78
2021/11/13 01:20:58;;;;;;;10.50;9.17;;;7.80;99.90;;;;;;4991947;28;20297;-78
2021/11/13 01:23:23;;;;;;;11.17;9.43;;;7.80;99.90;;;;;;4975621;28;20186;-78
2021/11/13 01:25:49;;;;;;;9.23;8.33;;;7.80;99.90;;;;;;4991380;28;20545;-78
2021/11/13 01:28:15;;;;;;;13.00;10.33;;;7.80;99.90;;;;;;4991822;28;21223;-78
2021/11/13 01:30:41;;;;;;;11.23;9.07;;;7.80;99.90;;;;;;4991962;28;20999;-78
2021/11/13 01:33:07;;;;;;;10.40;9.30;;;7.80;99.90;;;;;;4992671;28;20577;-78
2021/11/13 01:35:32;;;;;;;10.40;8.60;;;7.80;99.90;;;;;;4991839;28;20175;-78
2021/11/13 01:37:58;;;;;;;13.17;11.57;;;7.80;99.90;;;;;;4992381;28;20187;-78
2021/11/13 01:40:25;;;;;;;9.70;8.70;;;7.70;99.90;;;;;;4975579;28;20171;-78
2021/11/13 01:42:55;;;;;;;13.40;10.77;;;7.80;99.90;;;;;;4992640;28;20531;-78
2021/11/13 01:45:21;;;;;;;9.10;7.82;;;7.80;99.90;;;;;;4993102;28;20545;-77
2021/11/13 01:47:48;;;;;;;11.55;10.38;;;7.80;99.90;;;;;;4995406;28;20222;-77
2021/11/13 01:50:21;;;;;;;11.98;10.25;;;7.70;99.90;;;;;;4990720;28;20220;-77
2021/11/13 01:52:48;;;;;;;11.52;9.02;;;7.70;99.90;;;;;;4992237;28;20175;-77
2021/11/13 01:55:17;;;;;;;11.30;9.65;;;7.80;99.90;;;;;;4975308;28;20174;-77
2021/11/13 01:57:47;;;;;;;10.27;8.25;;;7.80;99.90;;;;;;4974546;28;20211;-77
2021/11/13 02:00:24;;;;;;;9.30;8.13;;;7.80;99.90;;;;;;4975324;28;20197;-77
2021/11/13 02:02:50;;;;;;;10.07;8.98;;;7.80;99.90;;;;;;4991172;28;20705;-77
2021/11/13 02:05:16;;;;;;;10.40;9.30;;;7.80;99.90;;;;;;4974942;28;20175;-77
2021/11/13 02:07:42;;;;;;;11.47;9.20;;;7.90;99.90;;;;;;4990877;28;20728;-77
2021/11/13 02:10:13;;;;;;;10.45;9.00;;;7.90;99.90;;;;;;4991022;28;20178;-78
2021/11/13 02:12:39;;;;;;;11.07;9.75;;;7.90;99.90;;;;;;4958895;28;20540;-77
2021/11/13 02:15:06;;;;;;;11.30;9.25;;;7.90;99.90;;;;;;4958609;28;20179;-77
2021/11/13 02:17:32;;;;;;;11.85;10.40;;;7.90;99.90;;;;;;4999785;28;20225;-77
2021/11/13 02:20:14;;;;;;;10.27;8.32;;;8.00;99.90;;;;;;5009987;28;20170;-78
2021/11/13 02:22:40;;;;;;;10.75;9.65;;;8.10;99.90;;;;;;4998125;28;20200;-78
2021/11/13 02:25:06;;;;;;;11.50;9.95;;;8.10;99.90;;;;;;5004222;28;20490;-77
2021/11/13 02:27:32;;;;;;;12.20;9.65;;;8.10;99.90;;;;;;4997662;28;20237;-77
2021/11/13 02:29:58;;;;;;;9.63;8.57;;;8.20;99.90;;;;;;5007315;28;20174;-77
2021/11/13 02:32:24;;;;;;;10.13;9.03;;;8.20;99.90;;;;;;4977199;28;20615;-77
2021/11/13 02:34:49;;;;;;;12.63;10.30;;;8.20;99.90;;;;;;5003603;28;20177;-77
2021/11/13 02:37:16;;;;;;;11.77;9.90;;;8.20;99.90;;;;;;4974345;28;20291;-77
2021/11/13 02:39:43;;;;;;;11.23;10.13;;;8.30;99.90;;;;;;4986189;28;21184;-76
2021/11/13 02:42:09;;;;;;;11.43;10.20;;;8.30;99.90;;;;;;4975071;28;20630;-76
2021/11/13 02:44:36;;;;;;;14.50;11.35;;;8.40;99.90;;;;;;4992493;28;20213;-77
2021/11/13 02:47:02;;;;;;;10.75;9.18;;;8.40;99.90;;;;;;4992930;28;20191;-77
2021/11/13 02:49:30;;;;;;;12.52;11.32;;;8.40;99.90;;;;;;4991770;28;20221;-77
2021/11/13 02:51:56;;;;;;;12.95;10.30;;;8.40;99.90;;;;;;4992539;28;20159;-77
2021/11/13 02:54:21;;;;;;;10.50;9.40;;;8.50;99.90;;;;;;4958396;28;20174;-78
2021/11/13 02:56:48;;;;;;;11.13;9.73;;;8.50;99.90;;;;;;4958295;28;20199;-77
2021/11/13 02:59:14;;;;;;;11.50;9.77;;;8.60;99.90;;;;;;4990929;28;20191;-77
2021/11/13 03:01:40;;;;;;;12.17;10.87;;;8.60;99.90;;;;;;4997455;28;20575;-78
2021/11/13 03:04:05;;;;;;;11.23;9.63;;;8.60;99.90;;;;;;4995713;28;20178;-77
2021/11/13 03:06:31;;;;;;;11.93;10.00;;;8.60;99.90;;;;;;4994161;28;20198;-77
2021/11/13 03:08:57;;;;;;;11.73;9.77;;;8.70;99.90;;;;;;4994419;28;20218;-77
2021/11/13 03:11:23;;;;;;;12.97;8.40;;;8.70;99.90;;;;;;4994492;28;20183;-77
2021/11/13 03:13:52;;;;;;;10.00;8.50;;;8.70;99.90;;;;;;4995363;28;20916;-77
2021/11/13 03:16:19;;;;;;;13.35;10.55;;;8.70;99.90;;;;;;4993683;28;20574;-77
2021/11/13 03:18:45;;;;;;;10.27;9.18;;;8.70;99.90;;;;;;4978352;28;20598;-77
2021/11/13 03:21:12;;;;;;;12.50;10.13;;;8.80;99.90;;;;;;4978213;28;20198;-77
2021/11/13 03:23:44;;;;;;;10.07;9.02;;;8.80;99.90;;;;;;4994314;28;20232;-77
2021/11/13 03:26:37;;;;;;;10.75;8.57;;;8.90;99.90;;;;;;4961024;28;20547;-78
2021/11/13 03:29:15;;;;;;;12.32;9.15;;;8.90;99.90;;;;;;4992479;28;20226;-78
2021/11/13 03:31:42;;;;;;;13.02;11.00;;;9.00;99.90;;;;;;4995563;28;20163;-77
2021/11/13 03:34:08;;;;;;;12.20;9.77;;;9.00;99.90;;;;;;4994368;28;20178;-77
2021/11/13 03:36:34;;;;;;;13.45;10.77;;;9.00;99.90;;;;;;4994036;28;20202;-78
2021/11/13 03:39:00;;;;;;;14.73;11.23;;;9.00;99.90;;;;;;4999461;28;20175;-77
2021/11/13 03:41:28;;;;;;;12.35;10.02;;;9.00;99.90;;;;;;4977664;28;20951;-78
2021/11/13 03:43:53;;;;;;;11.45;10.10;;;9.00;99.90;;;;;;4994147;28;20522;-77
2021/11/13 03:46:19;;;;;;;13.37;11.00;;;9.00;99.90;;;;;;4995218;28;20182;-77
2021/11/13 03:48:46;;;;;;;12.17;10.50;;;9.00;99.90;;;;;;5005119;28;20628;-76
2021/11/13 03:51:12;;;;;;;14.50;11.25;;;9.00;99.90;;;;;;4998632;28;20578;-76
2021/11/13 03:53:38;;;;;;;13.88;10.90;;;8.90;99.90;;;;;;5023633;28;20171;-78
2021/11/13 03:56:05;;;;;;;13.57;10.90;;;8.90;99.90;;;;;;5030444;28;20206;-76
2021/11/13 03:58:30;;;;;;;16.75;10.82;;;8.80;99.90;;;;;;5003936;28;20617;-77
2021/11/13 04:00:57;;;;;;;10.52;9.40;;;8.80;99.90;;;;;;4984619;28;20174;-76
2021/11/13 04:03:23;;;;;;;12.18;9.60;;;8.80;99.90;;;;;;4983109;28;20175;-82
2021/11/13 04:05:49;;;;;;;16.53;11.17;;;8.70;99.90;;;;;;5012030;28;20186;-81
2021/11/13 04:08:15;;;;;;;13.10;11.33;;;8.70;99.90;;;;;;4979413;28;20809;-81
2021/11/13 04:10:49;;;;;;;11.75;10.43;;;8.60;99.90;;;;;;4995946;28;20669;-81
2021/11/13 04:13:15;;;;;;;19.05;12.30;;;8.60;99.90;;;;;;4995081;28;20171;-81
2021/11/13 04:15:41;;;;;;;18.80;12.37;;;8.50;99.90;;;;;;4986096;28;20283;-80
2021/11/13 04:18:07;;;;;;;22.48;15.95;;;8.50;99.90;;;;;;5012072;28;20171;-81
2021/11/13 04:20:33;;;;;;;18.30;12.68;;;8.40;99.90;;;;;;4987004;28;20179;-81
2021/11/13 04:22:59;;;;;;;15.63;11.73;;;8.40;99.90;;;;;;5002907;28;20195;-80
2021/11/13 04:25:26;;;;;;;17.53;12.07;;;8.40;99.90;;;;;;5017882;28;20182;-80
2021/11/13 04:27:53;;;;;;;16.30;12.55;;;8.30;99.90;;;;;;5002281;28;20721;-80
2021/11/13 04:30:20;;;;;;;19.27;12.75;;;8.30;99.90;;;;;;5018513;28;20179;-80
2021/11/13 04:32:48;;;;;;;19.70;15.15;;;8.30;99.90;;;;;;5016019;28;20174;-80
2021/11/13 04:35:17;;;;;;;15.13;11.55;;;8.20;99.90;;;;;;4979543;28;20574;-79
2021/11/13 04:37:59;;;;;;;19.58;14.93;;;8.20;99.90;;;;;;4994356;28;20197;-80
2021/11/13 04:40:29;;;;;;;17.98;14.90;;;8.20;99.90;;;;;;4979023;28;20591;-79
2021/11/13 04:42:55;;;;;;;15.43;12.40;;;8.20;99.90;;;;;;4995287;28;20182;-79
2021/11/13 04:45:21;;;;;;;13.30;10.97;;;8.10;99.90;;;;;;4962979;28;20521;-79
2021/11/13 04:47:48;;;;;;;16.10;12.85;;;8.10;99.90;;;;;;4979614;28;20625;-79
2021/11/13 04:50:18;;;;;;;15.25;12.63;;;8.10;99.90;;;;;;4995808;28;20179;-79
2021/11/13 04:52:45;;;;;;;15.10;13.50;;;8.00;99.90;;;;;;4999999;28;20182;-80
2021/11/13 04:55:11;;;;;;;16.02;12.65;;;8.10;99.90;;;;;;4994147;28;20160;-79
2021/11/13 04:57:39;;;;;;;15.30;12.70;;;8.10;99.90;;;;;;4994132;28;20211;-79
2021/11/13 05:00:08;;;;;;;15.35;12.82;;;8.00;99.90;;;;;;4995545;28;20197;-79
2021/11/13 05:02:34;;;;;;;17.15;13.52;;;8.10;99.90;;;;;;4977719;28;20235;-78
2021/11/13 05:05:00;;;;;;;17.33;14.73;;;8.10;99.90;;;;;;4977632;28;20606;-79
2021/11/13 05:07:26;;;;;;;20.60;13.30;;;8.00;99.90;;;;;;4993173;28;20187;-80
2021/11/13 05:09:54;;;;;;;16.53;13.63;;;8.00;99.90;;;;;;4977809;28;20185;-79
2021/11/13 05:12:20;;;;;;;18.10;14.30;;;8.10;99.90;;;;;;4978788;28;20175;-79
2021/11/13 05:14:56;;;;;;;17.73;11.90;;;8.10;99.90;;;;;;4995223;28;20163;-79
2021/11/13 05:17:24;;;;;;;21.33;15.80;;;8.10;99.90;;;;;;4977928;28;20197;-79
2021/11/13 05:19:49;;;;;;;18.00;13.53;;;8.00;99.90;;;;;;4976303;28;20167;-80
2021/11/13 05:22:15;;;;;;;18.73;13.07;;;8.10;99.90;;;;;;4976335;28;20746;-79
2021/11/13 05:24:41;;;;;;;14.57;10.93;;;8.00;99.90;;;;;;4981597;28;20171;-78
2021/11/13 05:27:12;;;;;;;17.48;12.80;;;8.10;99.90;;;;;;5002931;28;20621;-78
2021/11/13 05:29:39;;;;;;;18.05;12.57;;;8.10;99.90;;;;;;5007509;28;20194;-79
2021/11/13 05:32:05;;;;;;;17.90;13.47;;;8.20;99.90;;;;;;4980757;28;20177;-79
2021/11/13 05:34:31;;;;;;;14.93;12.25;;;8.20;99.90;;;;;;4996534;28;21176;-80
2021/11/13 05:36:57;;;;;;;15.83;11.53;;;8.20;99.90;;;;;;4978850;28;20219;-79
2021/11/13 05:39:27;;;;;;;14.40;12.52;;;8.30;99.90;;;;;;5009042;28;20179;-79
2021/11/13 05:41:55;;;;;;;18.73;12.90;;;8.30;99.90;;;;;;4984753;28;20214;-79
2021/11/13 05:44:23;;;;;;;14.35;11.30;;;8.30;99.90;;;;;;4993237;28;20183;-78
2021/11/13 05:46:52;;;;;;;15.73;11.35;;;8.30;99.90;;;;;;4992567;28;20225;-78
2021/11/13 05:49:19;;;;;;;16.38;10.70;;;8.40;99.90;;;;;;4993188;28;20191;-79
2021/11/13 05:51:50;;;;;;;14.77;12.07;;;8.40;99.90;;;;;;4976479;28;20221;-79
2021/11/13 05:54:15;;;;;;;18.23;13.38;;;8.40;99.90;;;;;;4975388;28;20182;-78
2021/11/13 05:56:41;;;;;;;14.60;12.67;;;8.40;99.90;;;;;;4991244;28;20191;-79
2021/11/13 05:59:07;;;;;;;18.63;12.97;;;8.40;99.90;;;;;;4991447;28;20582;-79
2021/11/13 06:01:33;;;;;;;17.53;12.70;;;8.50;99.90;;;;;;4959454;28;20593;-78
2021/11/13 06:03:59;;;;;;;13.13;10.40;;;8.50;99.90;;;;;;4992095;28;20253;-80
2021/11/13 06:06:27;;;;;;;16.88;11.30;;;8.50;99.90;;;;;;4997704;28;20195;-79
2021/11/13 06:08:53;;;;;;;20.40;14.93;;;8.60;99.90;;;;;;4980617;28;20614;-79
2021/11/13 06:11:22;;;;;;;16.40;12.95;;;8.50;99.90;;;;;;4994114;28;20178;-79
2021/11/13 06:13:47;;;;;;;13.67;11.70;;;8.60;99.90;;;;;;4991360;28;20258;-79
2021/11/13 06:16:13;;;;;;;15.63;12.83;;;8.60;99.90;;;;;;4992411;28;20629;-79
2021/11/13 06:18:39;;;;;;;17.87;11.30;;;8.60;99.90;;;;;;4991112;28;20186;-79
2021/11/13 06:21:06;;;;;;;17.52;13.35;;;8.70;99.90;;;;;;4992904;28;20599;-79
2021/11/13 06:23:35;;;;;;;17.33;12.93;;;8.70;99.90;;;;;;4987047;28;20193;-79
2021/11/13 06:26:01;;;;;;;19.50;13.30;;;8.70;99.90;;;;;;5012341;28;20586;-79
2021/11/13 06:28:27;;;;;;;15.60;12.25;;;8.70;99.90;;;;;;5014092;28;20193;-79
2021/11/13 06:30:55;;;;;;;16.55;10.77;;;8.70;99.90;;;;;;5032542;28;20166;-79
2021/11/13 06:33:24;;;;;;;17.30;12.57;;;8.80;99.90;;;;;;4988661;28;20608;-79
2021/11/13 06:35:50;;;;;;;15.43;11.73;;;8.80;99.90;;;;;;4995366;28;20166;-79
2021/11/13 06:38:16;;;;;;;14.45;10.55;;;8.80;99.90;;;;;;5021165;28;20197;-79
2021/11/13 06:40:45;;;;;;;15.63;11.25;;;8.80;99.90;;;;;;5004841;28;20174;-79
2021/11/13 06:43:10;;;;;;;14.60;11.10;;;8.90;99.90;;;;;;5023729;28;20170;-78
2021/11/13 06:45:40;;;;;;;13.73;11.02;;;8.90;99.90;;;;;;5031682;28;20599;-79
2021/11/13 06:48:05;;;;;;;13.35;11.40;;;8.90;99.90;;;;;;5022775;28;20669;-79
2021/11/13 06:50:33;;;;;;;14.97;11.37;;;8.90;99.90;;;;;;5004542;28;20273;-80
2021/11/13 06:52:58;;;;;;;12.23;9.57;;;8.90;99.90;;;;;;4987919;28;20276;-79
2021/11/13 06:55:24;;;;;;;17.23;12.27;;;8.90;99.90;;;;;;5040652;28;20193;-79
2021/11/13 06:57:50;;;;;;;17.90;13.30;;;9.00;99.90;;;;;;5005102;28;20677;-79
2021/11/13 07:00:18;;;;;;;17.27;12.63;;;9.00;99.90;;;;;;5021737;28;20524;-79
2021/11/13 07:02:45;;;;;;;13.27;10.57;;;9.00;99.90;;;;;;5022188;28;20202;-79
2021/11/13 07:05:17;;;;;;;12.80;10.57;;;9.00;99.90;;;;;;5008306;28;20594;-79
2021/11/13 07:07:43;;;;;;;12.80;10.30;;;9.00;99.90;;;;;;5022679;28;20209;-79
2021/11/13 07:10:12;;;;;;;13.23;11.75;;;9.10;99.90;;;;;;5005272;28;21157;-79
2021/11/13 07:12:38;;;;;;;14.30;11.80;;;9.10;99.90;;;;;;5014648;28;20538;-79
2021/11/13 07:15:05;;;;;;;15.75;11.80;;;9.10;99.90;;;;;;5019456;28;20587;-79
2021/11/13 07:17:43;;;;;;;15.52;11.80;;;9.10;99.90;;;;;;5002272;28;20194;-81
2021/11/13 07:20:11;;;;;;;17.95;13.13;;;9.10;99.90;;;;;;5017327;28;20165;-79
2021/11/13 07:22:38;;;;;;;12.95;10.52;;;9.10;99.90;;;;;;5021026;28;20166;-78
2021/11/13 07:25:06;;;;;;;10.43;8.93;;;9.20;99.90;;;;;;5003396;28;20171;-78
2021/11/13 07:27:32;;;;;;;19.88;13.85;;;9.20;99.90;;;;;;5002198;28;20201;-78
2021/11/13 07:29:59;;;;;;;13.03;9.70;;;9.20;99.90;;;;;;5018109;28;20171;-81
2021/11/13 07:32:27;;;;;;;12.82;10.07;;;9.30;99.90;;;;;;5017397;28;20528;-78
2021/11/13 07:34:53;;;;;;;11.13;8.68;;;9.30;99.90;;;;;;5018560;28;20253;-80
2021/11/13 07:37:19;;;;;;;13.60;10.47;;;9.40;99.90;;;;;;5018709;28;20241;-79
2021/11/13 07:39:45;;;;;;;12.23;9.00;;;9.40;99.90;;;;;;5019069;28;20166;-79
2021/11/13 07:42:10;;;;;;;11.90;9.77;;;9.40;99.90;;;;;;5016500;28;20261;-79
2021/11/13 07:44:37;;;;;;;13.10;9.68;;;9.50;99.90;;;;;;5016449;28;20577;-78
2021/11/13 07:47:03;;;;;;;15.50;10.17;;;9.50;99.90;;;;;;4983389;28;20252;-79
2021/11/13 07:49:29;;;;;;;9.63;8.40;;;9.50;99.90;;;;;;4996776;28;20643;-79
2021/11/13 07:51:55;;;;;;;10.20;8.50;;;9.60;99.90;;;;;;4997172;28;20170;-79
2021/11/13 07:54:21;;;;;;;12.80;8.90;;;9.60;99.90;;;;;;5013041;28;21121;-79
2021/11/13 07:56:48;;;;;;;13.30;8.43;;;9.70;99.90;;;;;;4996637;28;20604;-79
2021/11/13 07:59:14;;;;;;;10.35;8.20;;;9.70;99.90;;;;;;5018081;28;20631;-79
2021/11/13 08:01:41;;;;;;;14.40;9.93;;;9.80;99.90;;;;;;5013248;28;20554;-79
2021/11/13 08:04:07;;;;;;;12.23;8.75;;;9.80;99.90;;;;;;4996254;28;20181;-78
2021/11/13 08:06:33;;;;;;;9.07;7.27;;;9.90;99.90;;;;;;4996185;28;20561;-78
2021/11/13 08:08:59;;;;;;;11.10;8.00;;;10.00;99.90;;;;;;5013026;28;20288;-78
2021/11/13 08:11:25;;;;;;;8.82;7.20;;;10.00;99.90;;;;;;5013232;28;20566;-78
2021/11/13 08:13:51;;;;;;;10.17;8.00;;;10.20;99.90;;;;;;4996660;28;20224;-79
2021/11/13 08:16:17;;;;;;;10.68;8.77;;;10.20;99.90;;;;;;5012175;28;20573;-78
2021/11/13 08:18:43;;;;;;;9.97;7.37;;;10.20;99.90;;;;;;5014393;28;20724;-78
2021/11/13 08:21:08;;;;;;;9.53;7.33;;;10.20;99.90;;;;;;5014001;28;20175;-78
2021/11/13 08:23:34;;;;;;;9.50;7.20;;;10.30;99.90;;;;;;5012411;28;20581;-78
2021/11/13 08:26:01;;;;;;;8.23;6.60;;;10.30;99.90;;;;;;5012155;28;20253;-78
2021/11/13 08:28:27;;;;;;;9.15;6.45;;;10.30;99.90;;;;;;5011970;28;20640;-78
2021/11/13 08:30:54;;;;;;;9.30;7.57;;;10.30;99.90;;;;;;5012284;28;20216;-77
2021/11/13 08:33:24;;;;;;;10.20;6.22;;;10.30;99.90;;;;;;5007715;28;20589;-78
2021/11/13 08:35:50;;;;;;;10.40;7.47;;;10.30;99.90;;;;;;5017648;28;20171;-78
2021/11/13 08:38:18;;;;;;;8.63;6.68;;;10.30;99.90;;;;;;5011925;28;20328;-78
2021/11/13 08:40:47;;;;;;;8.30;6.70;;;10.30;99.90;;;;;;4991984;28;20594;-77
2021/11/13 08:43:13;;;;;;;8.38;5.40;;;10.30;99.90;;;;;;4995791;28;20645;-77
2021/11/13 08:45:39;;;;;;;8.07;6.45;;;10.30;99.90;;;;;;5013580;28;20201;-78
2021/11/13 08:48:05;;;;;;;6.70;5.50;;;10.30;99.90;;;;;;5010476;28;20659;-78
2021/11/13 08:50:32;;;;;;;8.07;6.60;;;10.40;99.90;;;;;;5013909;28;20326;-79
2021/11/13 08:53:03;;;;;;;8.90;5.80;;;10.30;99.90;;;;;;5014052;28;20159;-78
2021/11/13 08:55:32;;;;;;;7.85;5.97;;;10.40;99.90;;;;;;5005985;28;20497;-78
2021/11/13 08:57:58;;;;;;;6.63;5.15;;;10.40;99.90;;;;;;4995294;28;20295;-78
2021/11/13 09:00:47;;;;;;;6.88;5.32;;;10.50;99.90;;;;;;4987975;28;20174;-77
2021/11/13 09:03:38;;;;;;;15.15;6.22;;;10.50;99.90;;;;;;4994647;28;20218;-78
2021/11/13 09:06:09;;;;;;;6.47;5.15;;;10.50;99.90;;;;;;4993392;28;20184;-78
2021/11/13 09:08:37;;;;;;;7.05;5.45;;;10.60;99.90;;;;;;5011577;28;20201;-78
2021/11/13 09:11:05;;;;;;;7.63;5.40;;;10.60;99.90;;;;;;4980754;28;20173;-79
2021/11/13 09:13:31;;;;;;;6.90;5.22;;;10.70;99.90;;;;;;5019847;28;20223;-78
2021/11/13 09:16:00;;;;;;;6.95;5.40;;;10.70;99.90;;;;;;5014249;28;20161;-80
2021/11/13 09:18:27;;;;;;;8.15;5.68;;;10.70;99.90;;;;;;4998547;28;20681;-78
2021/11/13 09:20:54;;;;;;;8.60;4.40;;;10.80;99.90;;;;;;5014749;28;20287;-78
2021/11/13 09:23:20;;;;;;;7.10;4.13;;;10.80;99.90;;;;;;4998187;28;20247;-78
2021/11/13 09:25:48;;;;;;;6.22;4.70;;;10.90;99.90;;;;;;5014563;28;20304;-78
2021/11/13 09:28:14;;;;;;;7.53;4.70;;;10.90;99.90;;;;;;5032327;28;20197;-78
2021/11/13 09:30:44;;;;;;;5.78;3.65;;;10.90;99.90;;;;;;5014516;28;20329;-78
2021/11/13 09:33:11;;;;;;;4.90;3.60;;;10.90;99.90;;;;;;5014722;28;20185;-78
2021/11/13 09:35:38;;;;;;;7.22;4.65;;;10.90;99.90;;;;;;5031888;28;20715;-76
2021/11/13 09:38:04;;;;;;;4.88;3.95;;;11.00;99.90;;;;;;5014124;28;20205;-77
2021/11/13 09:40:30;;;;;;;5.80;4.37;;;11.00;99.90;;;;;;4997912;28;20205;-77
2021/11/13 09:43:00;;;;;;;9.93;4.80;;;11.00;99.90;;;;;;5014364;28;20165;-76
2021/11/13 09:45:28;;;;;;;4.85;4.10;;;11.00;99.90;;;;;;4997848;28;20580;-76
2021/11/13 09:47:56;;;;;;;4.03;3.63;;;11.10;99.90;;;;;;5031747;28;20209;-76
2021/11/13 09:50:24;;;;;;;5.03;3.30;;;11.10;99.90;;;;;;5033975;28;20174;-76
2021/11/13 09:52:50;;;;;;;6.70;4.10;;;11.10;99.90;;;;;;5031386;28;20657;-76
2021/11/13 09:55:20;;;;;;;6.15;3.47;;;11.20;99.90;;;;;;5031979;28;20235;-76
2021/11/13 09:57:47;;;;;;;4.88;3.10;;;11.30;99.90;;;;;;5013323;28;20213;-76
2021/11/13 10:00:16;;;;;;;5.10;2.42;;;11.30;99.90;;;;;;5031953;28;20211;-76
2021/11/13 10:02:43;;;;;;;3.78;3.38;;;11.50;99.90;;;;;;5031439;28;20170;-76
2021/11/13 10:05:10;;;;;;;3.95;3.50;;;11.60;99.90;;;;;;5014699;28;20219;-82
2021/11/13 10:07:36;;;;;;;4.43;3.20;;;11.70;99.90;;;;;;5030954;28;20205;-82
2021/11/13 10:10:04;;;;;;;3.73;3.00;;;11.80;99.90;;;;;;5014713;28;20169;-82
2021/11/13 10:12:37;;;;;;;3.20;2.67;;;11.80;99.90;;;;;;5030647;28;20593;-81
2021/11/13 10:15:25;;;;;;;3.67;2.90;;;11.90;99.90;;;;;;5014515;28;20245;-82
2021/11/13 10:18:25;;;;;;;3.70;2.55;;;11.90;99.90;;;;;;5014167;28;20257;-82
2021/11/13 10:20:57;;;;;;;3.40;2.30;;;11.90;99.90;;;;;;4958099;28;20562;-83
2021/11/13 10:23:26;;;;;;;3.25;2.67;;;12.00;99.90;;;;;;5027001;28;20200;-83
2021/11/13 10:26:18;;;;;;;3.63;2.75;;;12.00;99.90;;;;;;5027573;28;20174;-83
2021/11/13 10:29:23;;;;;;;4.32;2.50;;;12.00;99.90;;;;;;5031332;28;20682;-83
2021/11/13 10:31:52;;;;;;;3.60;2.25;;;12.00;99.90;;;;;;5029276;28;20646;-84
2021/11/13 10:34:22;;;;;;;3.90;2.60;;;12.10;99.90;;;;;;5032147;28;20165;-84
2021/11/13 10:36:59;;;;;;;4.07;2.33;;;12.10;99.90;;;;;;5028829;28;20194;-84
2021/11/13 10:39:31;;;;;;;3.90;2.42;;;12.20;99.90;;;;;;5033151;28;20189;-84
2021/11/13 10:42:01;;;;;;;5.10;3.00;;;12.30;99.90;;;;;;5030799;28;20242;-84
2021/11/13 10:44:29;;;;;;;3.10;2.40;;;12.40;99.90;;;;;;5035626;28;20189;-84
2021/11/13 10:47:12;;;;;;;3.10;2.05;;;12.40;99.90;;;;;;5035885;28;20198;-84
2021/11/13 10:49:38;;;;;;;3.95;2.88;;;12.50;99.90;;;;;;5033385;28;20309;-84
2021/11/13 10:52:09;;;;;;;4.63;2.90;;;12.60;99.90;;;;;;5030005;28;20174;-84
2021/11/13 10:54:36;;;;;;;3.10;2.42;;;12.60;99.90;;;;;;5026821;28;20177;-84
2021/11/13 10:57:07;;;;;;;4.72;2.47;;;12.70;99.90;;;;;;5029491;28;20236;-84
2021/11/13 10:59:36;;;;;;;3.23;2.93;;;12.80;99.90;;;;;;5024577;28;20230;-85
2021/11/13 11:02:05;;;;;;;4.43;2.87;;;12.80;99.90;;;;;;5023546;28;20573;-85
2021/11/13 11:04:34;;;;;;;7.30;2.77;;;12.90;99.90;;;;;;5027246;28;20562;-85
2021/11/13 11:07:23;;;;;;;3.47;2.33;;;13.00;99.90;;;;;;5024049;28;20593;-84
2021/11/13 11:10:10;;;;;;;4.63;3.27;;;13.00;99.90;;;;;;5035038;28;20186;-84
2021/11/13 11:12:37;;;;;;;3.10;2.37;;;13.10;99.90;;;;;;5031177;28;20585;-84
2021/11/13 11:15:09;;;;;;;4.77;2.77;;;13.10;99.90;;;;;;5036316;28;20593;-84
2021/11/13 11:17:35;;;;;;;3.70;2.17;;;13.10;99.90;;;;;;5033767;28;20608;-84
2021/11/13 11:20:05;;;;;;;3.15;2.85;;;13.20;99.90;;;;;;5028493;28;20170;-85
2021/11/13 11:22:31;;;;;;;2.20;2.00;;;13.10;99.90;;;;;;5024688;28;20162;-82
2021/11/13 11:25:03;;;;;;;3.60;2.37;;;13.10;99.90;;;;;;5037048;28;20178;-84
2021/11/13 11:27:34;;;;;;;4.30;2.97;;;13.20;99.90;;;;;;5006714;28;20605;-84
2021/11/13 11:30:05;;;;;;;3.53;3.23;;;13.20;99.90;;;;;;5023129;28;20194;-83
2021/11/13 11:32:49;;;;;;;3.37;3.07;;;13.20;99.90;;;;;;5024784;28;20677;-83
2021/11/13 11:35:36;;;;;;;4.57;3.77;;;13.10;99.90;;;;;;5040522;28;20565;-83
2021/11/13 11:38:10;;;;;;;3.73;3.17;;;13.10;99.90;;;;;;5034337;28;20631;-83
2021/11/13 11:40:43;;;;;;;4.77;4.00;;;13.10;99.90;;;;;;5030946;28;20613;-84
2021/11/13 11:43:12;;;;;;;3.70;3.30;;;13.10;99.90;;;;;;5039234;28;20589;-83
2021/11/13 11:46:05;;;;;;;6.18;4.82;;;13.00;99.90;;;;;;5039888;28;20206;-83
2021/11/13 11:48:31;;;;;;;4.82;4.32;;;13.00;99.90;;;;;;5035436;28;20202;-83
2021/11/13 11:52:16;;;;;;;;;;;;;;;;;;;;;
2021/11/13 11:54:41;;;;;;;4.77;3.93;;;13.00;99.90;;;;;;5017022;28;20609;-84
2021/11/13 11:57:31;;;;;;;4.40;3.77;;;13.10;99.90;;;;;;5021794;28;20620;-83
2021/11/13 12:00:07;;;;;;;4.70;3.10;;;13.10;99.90;;;;;;5023049;28;20570;-79
2021/11/13 12:03:00;;;;;;;3.83;3.03;;;13.10;99.90;;;;;;4993290;28;20613;-78
2021/11/13 12:05:34;;;;;;;4.47;4.07;;;13.10;99.90;;;;;;5006555;28;20183;-79
2021/11/13 12:08:16;;;;;;;4.20;3.00;;;13.10;99.90;;;;;;5013777;28;20659;-79
2021/11/13 12:10:42;;;;;;;4.50;2.93;;;13.10;99.90;;;;;;5008732;28;20257;-79
2021/11/13 12:13:15;;;;;;;4.82;2.92;;;13.10;99.90;;;;;;5014022;28;20569;-79
2021/11/13 12:15:51;;;;;;;3.72;2.63;;;13.10;99.90;;;;;;5014507;28;20198;-79
2021/11/13 12:18:27;;;;;;;2.83;2.57;;;13.20;99.90;;;;;;5019214;28;20193;-80
2021/11/13 12:21:09;;;;;;;2.87;2.40;;;13.30;99.90;;;;;;5014472;28;20960;-79
2021/11/13 12:23:51;;;;;;;5.45;3.08;;;13.30;99.90;;;;;;5006591;28;20924;-78
2021/11/13 12:26:23;;;;;;;4.80;3.63;;;13.30;99.90;;;;;;5004357;28;20690;-79
2021/11/13 12:28:52;;;;;;;3.77;3.20;;;13.30;99.90;;;;;;5012707;28;20617;-79
2021/11/13 12:31:26;;;;;;;5.57;3.00;;;13.30;99.90;;;;;;5014193;28;21139;-79
2021/11/13 12:34:00;;;;;;;3.67;2.40;;;13.40;99.90;;;;;;5012814;28;21177;-78
2021/11/13 12:36:57;;;;;;;4.63;3.20;;;13.40;99.90;;;;;;5005931;28;20593;-79
2021/11/13 12:39:24;;;;;;;6.40;3.27;;;13.40;99.90;;;;;;5012791;28;20680;-79
2021/11/13 12:42:11;;;;;;;3.37;2.90;;;13.50;99.90;;;;;;5012813;28;20680;-79
2021/11/13 12:44:48;;;;;;;2.87;2.57;;;13.50;99.90;;;;;;5012333;28;20569;-78
2021/11/13 12:47:18;;;;;;;6.47;2.80;;;13.50;99.90;;;;;;5013608;28;20653;-78
2021/11/13 12:49:46;;;;;;;3.83;2.77;;;13.50;99.90;;;;;;5013564;28;20643;-78
2021/11/13 12:52:22;;;;;;;4.10;3.47;;;13.50;99.90;;;;;;5012046;28;20613;-78
2021/11/13 12:54:50;;;;;;;3.87;3.47;;;13.40;99.90;;;;;;5018155;28;20592;-78